Time;durP1;ratioP1;P1;durP2;ratioP2;P2;SDS_P1;SDS_P2;PMS_P1;PMS_P2;Temp;Humidity;BMP_temperature;BMP_pressure;BME280_temperature;BME280_humidity;BME280_pressure;Samples;Min_cycle;Max_cycle;Signal;HPM_P1;HPM_P2
2021/04/03 00:00:21;;;;;;;0.73;0.73;;;12.30;70.10;;;;;;4965302;28;20712;-85
2021/04/03 00:02:46;;;;;;;0.80;0.63;;;12.00;70.70;;;;;;4968596;28;20053;-85
2021/04/03 00:05:14;;;;;;;0.20;0.20;;;12.20;70.50;;;;;;4969323;28;20050;-85
2021/04/03 00:07:40;;;;;;;13.82;2.05;;;12.30;70.70;;;;;;4968618;28;20086;-84
2021/04/03 00:10:13;;;;;;;0.05;0.05;;;12.20;70.50;;;;;;4961021;28;20038;-84
2021/04/03 00:12:41;;;;;;;3.53;1.15;;;12.00;71.50;;;;;;4965243;28;20526;-85
2021/04/03 00:15:08;;;;;;;0.93;0.93;;;12.00;70.90;;;;;;4965843;28;20633;-84
2021/04/03 00:17:34;;;;;;;0.60;0.60;;;12.00;70.90;;;;;;4968454;28;20447;-84
2021/04/03 00:20:00;;;;;;;0.30;0.30;;;11.80;71.30;;;;;;4966575;28;20035;-85
2021/04/03 00:22:26;;;;;;;0.73;0.73;;;11.80;72.30;;;;;;4968847;28;20034;-84
2021/04/03 00:24:52;;;;;;;1.20;0.83;;;11.80;72.20;;;;;;4968522;28;20031;-84
2021/04/03 00:27:18;;;;;;;0.50;0.50;;;11.70;72.00;;;;;;4962964;28;20054;-85
2021/04/03 00:29:44;;;;;;;1.33;0.57;;;11.70;72.00;;;;;;4960375;28;20086;-84
2021/04/03 00:32:10;;;;;;;0.85;0.85;;;11.70;72.20;;;;;;4967139;28;20109;-84
2021/04/03 00:34:36;;;;;;;0.37;0.37;;;11.60;72.00;;;;;;4957691;28;20046;-85
2021/04/03 00:37:02;;;;;;;0.98;0.98;;;11.50;73.30;;;;;;4970860;28;20090;-84
2021/04/03 00:39:28;;;;;;;1.00;0.73;;;11.40;73.50;;;;;;4967714;28;20024;-85
2021/04/03 00:41:54;;;;;;;1.35;0.98;;;11.30;73.40;;;;;;4969593;28;20061;-85
2021/04/03 00:44:20;;;;;;;0.43;0.43;;;11.20;74.30;;;;;;4973150;28;20030;-85
2021/04/03 00:46:46;;;;;;;1.52;1.42;;;11.20;74.90;;;;;;4973223;28;20503;-84
2021/04/03 00:49:12;;;;;;;0.88;0.75;;;11.40;73.10;;;;;;4970698;28;20041;-84
2021/04/03 00:51:39;;;;;;;2.83;1.73;;;11.20;74.50;;;;;;4962650;28;20102;-84
2021/04/03 00:54:06;;;;;;;1.70;1.25;;;11.10;74.70;;;;;;4968132;28;20031;-84
2021/04/03 00:56:32;;;;;;;2.03;0.55;;;11.20;74.70;;;;;;4969817;28;20027;-85
2021/04/03 00:58:58;;;;;;;0.95;0.75;;;11.20;74.40;;;;;;4967161;28;20031;-84
2021/04/03 01:01:24;;;;;;;1.95;0.90;;;10.90;75.50;;;;;;4967578;28;20062;-84
2021/04/03 01:03:51;;;;;;;6.53;1.95;;;11.10;74.90;;;;;;4965167;28;20501;-84
2021/04/03 01:06:17;;;;;;;0.20;0.20;;;11.00;76.20;;;;;;4971726;28;20049;-83
2021/04/03 01:08:43;;;;;;;11.38;0.90;;;11.00;75.40;;;;;;4966731;28;20499;-84
2021/04/03 01:11:09;;;;;;;1.17;1.17;;;10.90;75.60;;;;;;4968136;28;20026;-84
2021/04/03 01:13:52;;;;;;;0.80;0.80;;;10.90;75.90;;;;;;4968739;28;20097;-84
2021/04/03 01:16:27;;;;;;;0.82;0.82;;;10.90;75.90;;;;;;4968403;28;20022;-84
2021/04/03 01:19:09;;;;;;;3.20;0.30;;;10.80;76.30;;;;;;4962519;28;20092;-84
2021/04/03 01:21:57;;;;;;;0.55;0.55;;;10.90;76.80;;;;;;4963646;28;20581;-84
2021/04/03 01:25:00;;;;;;;11.45;0.73;;;11.10;75.30;;;;;;4970857;28;20041;-84
2021/04/03 01:27:27;;;;;;;6.35;2.13;;;10.80;76.00;;;;;;4964650;28;20026;-84
2021/04/03 01:30:01;;;;;;;9.85;2.13;;;10.90;76.30;;;;;;4962021;28;20051;-84
2021/04/03 01:33:06;;;;;;;2.72;1.10;;;10.90;76.60;;;;;;4969694;28;20507;-84
2021/04/03 01:35:39;;;;;;;0.10;0.10;;;10.70;76.90;;;;;;4940063;29;20067;-84
2021/04/03 01:38:18;;;;;;;0.68;0.68;;;10.80;76.70;;;;;;4936685;29;20090;-84
2021/04/03 01:40:47;;;;;;;0.40;0.40;;;10.80;76.50;;;;;;4939013;29;20039;-84
2021/04/03 01:43:22;;;;;;;0.38;0.30;;;10.60;78.50;;;;;;4939482;29;20048;-84
2021/04/03 01:45:50;;;;;;;1.05;1.00;;;10.60;77.60;;;;;;4936923;29;20288;-84
2021/04/03 01:48:18;;;;;;;0.47;0.47;;;10.40;78.00;;;;;;4934234;29;20039;-85
2021/04/03 01:50:45;;;;;;;0.50;0.50;;;10.40;78.20;;;;;;4946384;29;20087;-85
2021/04/03 01:53:12;;;;;;;0.43;0.30;;;10.20;79.50;;;;;;4933717;29;20086;-85
2021/04/03 01:55:38;;;;;;;5.50;2.25;;;10.40;78.30;;;;;;4945152;29;20039;-84
2021/04/03 01:58:04;;;;;;;1.77;0.85;;;10.50;78.30;;;;;;4939860;29;20055;-84
2021/04/03 02:00:32;;;;;;;1.48;1.02;;;10.50;78.50;;;;;;4932712;29;20035;-84
2021/04/03 02:02:58;;;;;;;2.45;1.15;;;10.40;80.20;;;;;;4931645;29;20134;-84
2021/04/03 02:05:25;;;;;;;0.55;0.55;;;10.20;79.40;;;;;;4939031;29;20042;-84
2021/04/03 02:07:51;;;;;;;0.82;0.82;;;10.30;79.70;;;;;;4932329;29;20507;-84
2021/04/03 02:10:23;;;;;;;1.10;1.05;;;10.40;79.10;;;;;;4961543;28;20035;-84
2021/04/03 02:12:49;;;;;;;1.10;0.22;;;10.10;80.70;;;;;;4958473;28;20499;-85
2021/04/03 02:15:17;;;;;;;0.95;0.63;;;10.00;80.30;;;;;;4965136;28;20033;-84
2021/04/03 02:17:46;;;;;;;0.63;0.63;;;10.00;81.00;;;;;;4967882;28;20041;-83
2021/04/03 02:20:12;;;;;;;5.72;0.88;;;9.90;81.00;;;;;;4971380;28;20145;-84
2021/04/03 02:22:41;;;;;;;0.47;0.47;;;10.00;81.00;;;;;;4966334;28;20031;-85
2021/04/03 02:25:12;;;;;;;1.48;1.38;;;9.70;82.20;;;;;;4960511;28;20038;-84
2021/04/03 02:27:39;;;;;;;1.08;1.08;;;9.80;82.70;;;;;;4954696;28;20034;-84
2021/04/03 02:30:12;;;;;;;;;;;10.00;82.20;;;;;;4967214;28;20798;-84
2021/04/03 02:32:53;;;;;;;0.40;0.40;;;9.80;82.20;;;;;;4961827;28;19949;-84
2021/04/03 02:35:20;;;;;;;2.00;0.52;;;9.70;82.40;;;;;;4975638;28;20732;-84
2021/04/03 02:37:48;;;;;;;0.30;0.30;;;9.80;82.00;;;;;;4962562;28;20039;-84
2021/04/03 02:40:18;;;;;;;1.50;1.13;;;9.50;83.20;;;;;;4967056;28;20101;-84
2021/04/03 02:43:19;;;;;;;0.10;0.10;;;9.50;83.50;;;;;;4969187;28;20058;-83
2021/04/03 02:45:53;;;;;;;0.38;0.38;;;9.40;84.40;;;;;;4957998;28;20231;-84
2021/04/03 02:48:20;;;;;;;1.65;0.80;;;9.50;83.90;;;;;;4964989;28;20034;-83
2021/04/03 02:50:50;;;;;;;0.63;0.63;;;9.30;84.40;;;;;;4969873;28;20122;-83
2021/04/03 02:53:18;;;;;;;1.00;0.68;;;9.60;84.00;;;;;;4966219;28;20034;-83
2021/04/03 02:55:47;;;;;;;0.80;0.80;;;9.60;84.90;;;;;;4958577;28;20495;-83
2021/04/03 02:58:18;;;;;;;0.50;0.50;;;9.50;84.20;;;;;;4961053;28;20110;-83
2021/04/03 03:00:46;;;;;;;0.68;0.68;;;9.40;84.20;;;;;;4962895;28;20085;-84
2021/04/03 03:03:13;;;;;;;0.98;0.73;;;9.20;86.00;;;;;;4962543;28;20055;-84
2021/04/03 03:05:40;;;;;;;;;;;9.20;85.80;;;;;;4970626;28;20027;-84
2021/04/03 03:08:07;;;;;;;0.75;0.75;;;9.20;85.50;;;;;;4962908;28;19917;-84
2021/04/03 03:10:34;;;;;;;0.70;0.70;;;9.10;86.00;;;;;;4964731;28;20031;-84
2021/04/03 03:13:01;;;;;;;1.02;0.93;;;9.20;86.30;;;;;;4969591;28;20023;-84
2021/04/03 03:15:30;;;;;;;0.45;0.45;;;9.10;86.30;;;;;;4970072;28;20065;-83
2021/04/03 03:17:57;;;;;;;0.40;0.40;;;9.20;86.60;;;;;;4969514;28;20030;-84
2021/04/03 03:20:23;;;;;;;0.63;0.57;;;9.20;86.90;;;;;;4970044;28;20027;-83
2021/04/03 03:22:49;;;;;;;0.32;0.32;;;9.20;86.20;;;;;;4969772;28;20058;-83
2021/04/03 03:25:15;;;;;;;12.35;2.53;;;9.00;86.80;;;;;;4969976;28;20038;-84
2021/04/03 03:27:45;;;;;;;1.02;0.90;;;9.20;86.00;;;;;;4969957;28;20042;-84
2021/04/03 03:30:14;;;;;;;0.15;0.15;;;9.20;87.70;;;;;;4967072;28;20051;-84
2021/04/03 03:32:40;;;;;;;0.60;0.60;;;9.20;87.20;;;;;;4968706;28;20027;-84
2021/04/03 03:35:07;;;;;;;0.52;0.52;;;9.20;87.70;;;;;;4961805;28;20027;-84
2021/04/03 03:37:34;;;;;;;1.20;0.30;;;9.10;87.00;;;;;;4968697;28;20014;-84
2021/04/03 03:40:00;;;;;;;;;;;8.90;88.20;;;;;;4969388;28;20039;-84
2021/04/03 03:42:26;;;;;;;0.45;0.45;;;9.00;87.80;;;;;;4968630;28;19917;-84
2021/04/03 03:44:53;;;;;;;2.83;1.15;;;8.80;88.40;;;;;;4970078;28;20042;-84
2021/04/03 03:47:19;;;;;;;3.30;0.95;;;9.00;88.00;;;;;;4969281;28;20483;-84
2021/04/03 03:49:45;;;;;;;0.70;0.68;;;8.90;87.60;;;;;;4963753;28;20130;-84
2021/04/03 03:52:10;;;;;;;0.50;0.50;;;8.70;88.50;;;;;;4962398;28;20031;-83
2021/04/03 03:54:36;;;;;;;0.25;0.25;;;8.60;88.50;;;;;;4969302;28;20118;-83
2021/04/03 03:57:03;;;;;;;0.10;0.10;;;9.00;88.00;;;;;;4960302;28;20046;-84
2021/04/03 03:59:30;;;;;;;0.47;0.47;;;8.80;88.60;;;;;;4968983;28;20100;-84
2021/04/03 04:01:55;;;;;;;1.15;0.88;;;8.90;87.80;;;;;;4968980;28;20097;-84
2021/04/03 04:04:21;;;;;;;0.35;0.35;;;8.60;89.00;;;;;;4966515;28;20071;-84
2021/04/03 04:06:47;;;;;;;0.60;0.60;;;8.40;89.50;;;;;;4967674;28;20134;-84
2021/04/03 04:09:13;;;;;;;0.35;0.35;;;8.30;90.00;;;;;;4954582;28;20499;-84
2021/04/03 04:11:39;;;;;;;0.25;0.25;;;8.30;90.20;;;;;;4972638;28;20719;-84
2021/04/03 04:14:05;;;;;;;0.65;0.57;;;8.30;90.30;;;;;;4973225;28;20069;-84
2021/04/03 04:16:30;;;;;;;0.10;0.10;;;8.50;89.30;;;;;;4972832;28;20100;-84
2021/04/03 04:18:56;;;;;;;0.45;0.45;;;8.40;89.60;;;;;;4972300;28;20051;-84
2021/04/03 04:21:25;;;;;;;3.30;1.65;;;8.50;89.90;;;;;;4973127;28;20029;-84
2021/04/03 04:23:51;;;;;;;0.88;0.88;;;8.40;90.50;;;;;;4972554;28;20443;-84
2021/04/03 04:26:17;;;;;;;0.25;0.25;;;8.30;90.30;;;;;;4972717;28;20030;-84
2021/04/03 04:28:43;;;;;;;0.82;0.52;;;8.30;96.40;;;;;;4962321;28;20531;-84
2021/04/03 04:31:10;;;;;;;1.48;1.38;;;8.00;91.00;;;;;;4968078;28;20046;-84
2021/04/03 04:33:36;;;;;;;0.30;0.30;;;8.00;90.90;;;;;;4972260;28;20046;-84
2021/04/03 04:36:01;;;;;;;0.47;0.47;;;7.90;91.20;;;;;;4972479;28;20073;-84
2021/04/03 04:38:27;;;;;;;4.35;1.35;;;7.90;91.20;;;;;;4972899;28;20035;-84
2021/04/03 04:40:53;;;;;;;0.30;0.30;;;7.80;91.10;;;;;;4961990;28;20032;-84
2021/04/03 04:43:20;;;;;;;0.68;0.68;;;7.80;91.30;;;;;;4967192;28;20027;-84
2021/04/03 04:45:46;;;;;;;;;;;8.00;91.00;;;;;;4963741;28;20106;-84
2021/04/03 04:48:12;;;;;;;0.30;0.30;;;7.90;91.10;;;;;;4962461;28;19993;-84
2021/04/03 04:50:37;;;;;;;1.95;0.60;;;7.50;91.30;;;;;;4966073;28;20029;-82
2021/04/03 04:53:06;;;;;;;0.52;0.52;;;7.80;91.60;;;;;;4971994;28;20114;-82
2021/04/03 04:55:32;;;;;;;0.60;0.60;;;7.70;91.50;;;;;;4972959;28;20015;-82
2021/04/03 04:57:58;;;;;;;1.35;0.50;;;7.90;91.20;;;;;;4965541;28;20755;-83
2021/04/03 05:00:25;;;;;;;0.73;0.73;;;7.60;91.80;;;;;;4970862;28;20103;-82
2021/04/03 05:02:51;;;;;;;7.03;1.05;;;7.90;91.70;;;;;;4964642;28;20034;-83
2021/04/03 05:05:16;;;;;;;0.82;0.82;;;7.60;92.00;;;;;;4972477;28;20035;-83
2021/04/03 05:07:42;;;;;;;0.17;0.17;;;7.80;91.40;;;;;;4965580;28;20039;-84
2021/04/03 05:10:09;;;;;;;0.60;0.60;;;7.80;91.90;;;;;;4967514;28;20097;-83
2021/04/03 05:12:35;;;;;;;0.30;0.30;;;7.70;91.50;;;;;;4965137;28;20056;-83
2021/04/03 05:15:01;;;;;;;0.73;0.73;;;7.90;91.50;;;;;;4967779;28;20436;-82
2021/04/03 05:17:26;;;;;;;2.17;1.40;;;7.70;91.70;;;;;;4963428;28;20093;-82
2021/04/03 05:19:52;;;;;;;1.25;1.15;;;7.60;91.90;;;;;;4971856;28;20105;-83
2021/04/03 05:22:18;;;;;;;0.65;0.57;;;7.70;92.50;;;;;;4970672;28;20043;-82
2021/04/03 05:24:44;;;;;;;3.53;1.90;;;8.10;91.70;;;;;;4961288;28;20082;-83
2021/04/03 05:27:10;;;;;;;4.82;0.85;;;7.80;91.90;;;;;;4965518;28;20270;-83
2021/04/03 05:29:36;;;;;;;0.20;0.20;;;7.50;92.30;;;;;;4969950;28;20082;-82
2021/04/03 05:32:02;;;;;;;0.30;0.30;;;7.70;92.30;;;;;;4961989;28;20062;-82
2021/04/03 05:34:28;;;;;;;0.30;0.30;;;7.60;92.40;;;;;;4961863;28;20034;-82
2021/04/03 05:36:53;;;;;;;1.85;0.90;;;7.80;92.20;;;;;;4963749;28;20279;-82
2021/04/03 05:39:19;;;;;;;0.38;0.38;;;7.90;92.00;;;;;;4965945;28;20074;-81
2021/04/03 05:41:45;;;;;;;0.30;0.30;;;7.90;92.50;;;;;;4969013;28;20063;-82
2021/04/03 05:44:13;;;;;;;1.23;1.23;;;8.00;92.30;;;;;;4970809;28;20042;-81
2021/04/03 05:46:39;;;;;;;1.35;0.77;;;8.10;92.90;;;;;;4960138;28;20031;-81
2021/04/03 05:49:05;;;;;;;4.60;1.58;;;8.30;92.50;;;;;;4964952;28;20034;-82
2021/04/03 05:51:31;;;;;;;1.63;1.33;;;8.80;92.30;;;;;;4971986;28;20034;-82
2021/04/03 05:54:01;;;;;;;0.73;0.45;;;9.00;92.00;;;;;;4968301;28;20650;-82
2021/04/03 05:56:28;;;;;;;0.32;0.32;;;9.30;92.00;;;;;;4959056;28;20025;-82
2021/04/03 05:58:54;;;;;;;;;;;9.30;92.20;;;;;;4971299;28;20037;-82
2021/04/03 06:01:20;;;;;;;0.63;0.63;;;9.40;92.10;;;;;;4969468;28;19906;-82
2021/04/03 06:03:46;;;;;;;1.23;1.13;;;9.60;91.90;;;;;;4954335;28;20414;-82
2021/04/03 06:06:12;;;;;;;1.00;0.98;;;9.70;91.80;;;;;;4967088;28;20034;-82
2021/04/03 06:08:38;;;;;;;1.40;1.20;;;9.90;91.70;;;;;;4970631;28;20022;-82
2021/04/03 06:11:23;;;;;;;1.77;1.67;;;10.30;90.80;;;;;;4966792;28;20027;-82
2021/04/03 06:14:01;;;;;;;0.65;0.65;;;10.30;91.00;;;;;;4966512;28;20054;-83
2021/04/03 06:16:32;;;;;;;0.47;0.43;;;10.30;91.40;;;;;;4967486;28;20109;-83
2021/04/03 06:19:16;;;;;;;0.70;0.70;;;10.50;91.50;;;;;;4968354;28;20042;-83
2021/04/03 06:21:57;;;;;;;0.30;0.30;;;10.70;91.00;;;;;;4953719;28;20031;-83
2021/04/03 06:24:35;;;;;;;0.32;0.32;;;10.70;91.10;;;;;;4958521;28;20122;-83
2021/04/03 06:27:11;;;;;;;0.55;0.55;;;11.00;90.60;;;;;;4970269;28;20019;-83
2021/04/03 06:29:43;;;;;;;0.28;0.28;;;11.20;90.40;;;;;;4961202;28;20093;-83
2021/04/03 06:32:33;;;;;;;0.90;0.90;;;11.40;90.30;;;;;;4958575;28;20034;-83
2021/04/03 06:35:00;;;;;;;0.68;0.68;;;11.20;90.50;;;;;;4957390;28;20030;-83
2021/04/03 06:37:34;;;;;;;;;;;11.90;89.40;;;;;;4963893;28;20490;-83
2021/04/03 06:40:06;;;;;;;0.50;0.50;;;11.80;90.00;;;;;;4963156;28;20338;-83
2021/04/03 06:42:51;;;;;;;0.73;0.73;;;12.00;88.20;;;;;;4959811;28;20069;-84
2021/04/03 06:45:34;;;;;;;1.75;1.13;;;12.00;88.20;;;;;;4965140;28;20118;-83
2021/04/03 06:48:02;;;;;;;1.55;0.82;;;12.10;88.30;;;;;;4958149;28;20031;-83
2021/04/03 06:50:34;;;;;;;1.15;0.85;;;12.30;87.50;;;;;;4960967;28;20113;-83
2021/04/03 06:53:06;;;;;;;1.38;0.68;;;12.50;87.10;;;;;;4961819;28;20019;-82
2021/04/03 06:55:33;;;;;;;1.05;1.02;;;12.20;88.30;;;;;;4961823;28;20078;-83
2021/04/03 06:58:04;;;;;;;0.28;0.28;;;12.50;86.80;;;;;;4967066;28;20019;-83
2021/04/03 07:00:32;;;;;;;0.13;0.13;;;12.50;87.00;;;;;;4961632;28;20110;-82
2021/04/03 07:03:02;;;;;;;0.60;0.60;;;12.60;86.60;;;;;;4955716;28;20042;-83
2021/04/03 07:05:35;;;;;;;0.17;0.17;;;13.50;85.10;;;;;;4960372;28;20035;-82
2021/04/03 07:08:04;;;;;;;0.32;0.32;;;12.70;85.80;;;;;;4964997;28;20034;-83
2021/04/03 07:10:32;;;;;;;0.60;0.60;;;13.20;85.00;;;;;;4952465;28;20498;-82
2021/04/03 07:12:59;;;;;;;9.48;1.27;;;13.40;84.60;;;;;;4959610;28;20027;-82
2021/04/03 07:15:27;;;;;;;1.75;0.75;;;13.50;85.10;;;;;;4964626;28;20472;-82
2021/04/03 07:17:54;;;;;;;0.17;0.17;;;13.80;84.00;;;;;;4960281;28;20070;-82
2021/04/03 07:20:21;;;;;;;;;;;14.00;82.10;;;;;;4959038;28;20118;-82
2021/04/03 07:22:56;;;;;;;0.88;0.50;;;14.30;81.40;;;;;;4959836;28;19936;-81
2021/04/03 07:25:26;;;;;;;0.63;0.43;;;13.40;83.50;;;;;;4962535;28;20026;-82
2021/04/03 07:27:52;;;;;;;0.55;0.55;;;14.30;82.70;;;;;;4967929;28;20270;-82
2021/04/03 07:30:38;;;;;;;0.20;0.20;;;14.50;80.40;;;;;;4960364;28;20097;-82
2021/04/03 07:33:16;;;;;;;0.30;0.30;;;14.90;79.20;;;;;;4949851;28;20027;-82
2021/04/03 07:35:50;;;;;;;0.40;0.40;;;14.70;79.40;;;;;;4960768;28;20139;-83
2021/04/03 07:38:36;;;;;;;1.00;0.60;;;14.90;79.90;;;;;;4958823;28;20759;-83
2021/04/03 07:41:17;;;;;;;0.22;0.22;;;14.60;80.10;;;;;;4962913;28;20530;-82
2021/04/03 07:43:46;;;;;;;0.22;0.22;;;14.70;80.30;;;;;;4961496;28;21433;-83
2021/04/03 07:46:38;;;;;;;0.25;0.25;;;15.10;78.40;;;;;;4957125;28;20034;-83
2021/04/03 07:49:05;;;;;;;0.43;0.43;;;15.20;76.80;;;;;;4958426;28;20034;-84
2021/04/03 07:51:31;;;;;;;0.10;0.10;;;15.80;75.30;;;;;;4965016;28;20030;-84
2021/04/03 07:53:59;;;;;;;;;;;15.50;75.20;;;;;;4956135;28;20491;-85
2021/04/03 07:56:28;;;;;;;0.38;0.38;;;15.70;75.60;;;;;;4963393;28;20458;-82
2021/04/03 07:58:55;;;;;;;0.47;0.45;;;16.60;73.10;;;;;;4959893;28;20110;-84
2021/04/03 08:01:23;;;;;;;1.25;0.98;;;17.80;71.40;;;;;;4960253;28;20175;-84
2021/04/03 08:03:55;;;;;;;0.47;0.40;;;16.90;71.80;;;;;;4961941;28;20069;-84
2021/04/03 08:06:33;;;;;;;0.63;0.45;;;17.30;70.50;;;;;;4964351;28;20051;-84
2021/04/03 08:09:01;;;;;;;0.55;0.55;;;17.50;69.60;;;;;;4963857;28;20093;-84
2021/04/03 08:11:29;;;;;;;12.93;2.10;;;17.80;68.70;;;;;;4964486;28;20027;-84
2021/04/03 08:13:58;;;;;;;2.05;1.10;;;17.50;68.40;;;;;;4965206;28;20547;-83
2021/04/03 08:16:28;;;;;;;0.30;0.30;;;17.20;69.90;;;;;;4957430;28;20066;-83
2021/04/03 08:18:56;;;;;;;0.25;0.25;;;18.40;66.10;;;;;;4961371;28;20026;-84
2021/04/03 08:21:23;;;;;;;0.28;0.28;;;17.20;67.90;;;;;;4962866;28;20113;-83
2021/04/03 08:23:50;;;;;;;;;;;17.80;66.60;;;;;;4965140;28;20023;-84
2021/04/03 08:26:20;;;;;;;0.20;0.20;;;18.70;64.60;;;;;;4962768;28;19918;-83
2021/04/03 08:28:47;;;;;;;0.85;0.85;;;19.60;61.90;;;;;;4956337;28;20035;-84
2021/04/03 08:31:18;;;;;;;0.25;0.25;;;17.90;65.10;;;;;;4961606;28;20051;-84
2021/04/03 08:33:46;;;;;;;0.13;0.13;;;18.30;66.00;;;;;;4961587;28;20046;-84
2021/04/03 08:36:21;;;;;;;1.25;0.88;;;18.20;64.80;;;;;;4957514;28;20023;-84
2021/04/03 08:38:47;;;;;;;4.07;0.40;;;17.60;65.50;;;;;;4961549;28;20037;-84
2021/04/03 08:41:24;;;;;;;0.50;0.50;;;17.40;65.30;;;;;;4958604;28;20487;-84
2021/04/03 08:43:52;;;;;;;1.00;0.77;;;19.00;61.80;;;;;;4960971;28;20027;-84
2021/04/03 08:46:19;;;;;;;0.30;0.30;;;19.00;61.90;;;;;;4963785;28;20035;-84
2021/04/03 08:48:58;;;;;;;0.75;0.70;;;19.30;60.80;;;;;;4965612;28;20023;-84
2021/04/03 08:51:25;;;;;;;0.30;0.20;;;18.80;62.80;;;;;;4961577;28;20824;-84
2021/04/03 08:53:58;;;;;;;0.30;0.30;;;19.70;59.30;;;;;;4960113;28;20100;-84
2021/04/03 08:56:35;;;;;;;0.43;0.43;;;19.70;57.20;;;;;;4964523;28;20398;-84
2021/04/03 08:59:07;;;;;;;0.10;0.10;;;19.90;59.10;;;;;;4968944;28;20034;-84
2021/04/03 09:01:38;;;;;;;0.10;0.10;;;20.20;56.80;;;;;;4958198;28;20031;-84
2021/04/03 09:04:08;;;;;;;0.93;0.90;;;20.50;55.50;;;;;;4958689;28;20027;-84
2021/04/03 09:06:44;;;;;;;0.50;0.50;;;20.40;56.50;;;;;;4966500;28;20035;-84
2021/04/03 09:09:11;;;;;;;0.25;0.25;;;20.30;56.80;;;;;;4966925;28;20026;-84
2021/04/03 09:11:38;;;;;;;0.80;0.80;;;19.70;57.50;;;;;;4963360;28;20034;-84
2021/04/03 09:14:05;;;;;;;0.35;0.35;;;20.80;55.30;;;;;;4961061;28;20015;-84
2021/04/03 09:16:36;;;;;;;0.82;0.80;;;22.10;50.70;;;;;;4957340;28;20027;-84
2021/04/03 09:19:02;;;;;;;0.52;0.52;;;20.20;55.50;;;;;;4959663;28;20065;-84
2021/04/03 09:21:31;;;;;;;0.40;0.30;;;21.50;52.20;;;;;;4966663;28;20118;-84
2021/04/03 09:23:57;;;;;;;0.40;0.40;;;21.70;51.00;;;;;;4960527;28;20118;-84
2021/04/03 09:26:37;;;;;;;30.80;1.13;;;21.60;47.80;;;;;;4958266;28;20523;-84
2021/04/03 09:29:10;;;;;;;0.30;0.30;;;23.10;47.70;;;;;;4965287;28;20929;-84
2021/04/03 09:31:46;;;;;;;0.25;0.25;;;22.00;49.10;;;;;;4958232;28;20039;-84
2021/04/03 09:34:18;;;;;;;0.15;0.15;;;23.20;47.60;;;;;;4960222;28;20062;-84
2021/04/03 09:36:46;;;;;;;0.63;0.52;;;24.60;42.00;;;;;;4959657;28;20034;-84
2021/04/03 09:39:20;;;;;;;0.57;0.57;;;22.10;50.10;;;;;;4963449;28;20461;-83
2021/04/03 09:41:54;;;;;;;0.28;0.15;;;21.90;48.50;;;;;;4969934;28;20042;-83
2021/04/03 09:44:20;;;;;;;0.10;0.10;;;24.10;42.70;;;;;;4963233;28;20562;-83
2021/04/03 09:46:49;;;;;;;0.37;0.37;;;23.40;42.10;;;;;;4956607;28;20043;-83
2021/04/03 09:49:17;;;;;;;1.05;0.68;;;23.30;56.70;;;;;;4960654;28;20034;-83
2021/04/03 09:51:43;;;;;;;0.57;0.57;;;22.40;44.80;;;;;;4961998;28;20034;-82
2021/04/03 09:54:16;;;;;;;2.37;2.17;;;22.60;45.00;;;;;;4961874;28;20030;-83
2021/04/03 09:56:42;;;;;;;0.10;0.10;;;21.70;45.60;;;;;;4957082;28;20098;-83
2021/04/03 09:59:08;;;;;;;0.10;0.10;;;23.40;42.50;;;;;;4961224;28;20103;-81
2021/04/03 10:01:35;;;;;;;0.08;0.08;;;24.00;40.50;;;;;;4962548;28;20027;-82
2021/04/03 10:04:02;;;;;;;0.13;0.13;;;24.40;39.80;;;;;;4962695;28;20667;-83
2021/04/03 10:06:27;;;;;;;;;;;25.30;35.90;;;;;;4969499;28;20037;-82
2021/04/03 10:08:53;;;;;;;0.60;0.60;;;23.40;41.00;;;;;;4961161;28;19910;-82
2021/04/03 10:11:19;;;;;;;0.50;0.37;;;23.30;39.00;;;;;;4966358;28;20181;-81
2021/04/03 10:13:45;;;;;;;0.20;0.20;;;23.00;41.70;;;;;;4956174;28;20833;-83
2021/04/03 10:16:11;;;;;;;1.08;0.43;;;23.70;39.50;;;;;;4968169;28;20026;-83
2021/04/03 10:18:39;;;;;;;1.20;0.83;;;22.70;41.90;;;;;;4958873;28;20027;-83
2021/04/03 10:21:07;;;;;;;0.63;0.60;;;22.90;40.50;;;;;;4967680;28;20039;-83
2021/04/03 10:23:33;;;;;;;0.55;0.55;;;25.20;35.50;;;;;;4962414;28;20058;-83
2021/04/03 10:25:59;;;;;;;0.30;0.30;;;22.80;39.40;;;;;;4961036;28;20026;-83
2021/04/03 10:28:24;;;;;;;0.43;0.43;;;24.90;34.40;;;;;;4964719;28;20033;-84
2021/04/03 10:30:51;;;;;;;0.30;0.30;;;24.70;35.90;;;;;;4960642;28;20514;-84
2021/04/03 10:33:17;;;;;;;0.30;0.30;;;22.10;40.70;;;;;;4958644;28;20094;-85
2021/04/03 10:35:43;;;;;;;0.30;0.30;;;23.80;38.60;;;;;;4964363;28;20041;-84
2021/04/03 10:38:09;;;;;;;0.40;0.40;;;22.70;39.60;;;;;;4965785;28;20030;-84
2021/04/03 10:40:35;;;;;;;0.00;0.00;;;22.50;40.40;;;;;;4965721;28;20517;-84
2021/04/03 10:43:02;;;;;;;0.32;0.32;;;22.40;40.30;;;;;;4965122;28;20031;-83
2021/04/03 10:45:27;;;;;;;0.20;0.20;;;23.50;38.30;;;;;;4957934;28;20039;-84
2021/04/03 10:47:53;;;;;;;0.20;0.20;;;22.60;40.70;;;;;;4963130;28;20043;-83
2021/04/03 10:50:19;;;;;;;0.90;0.73;;;23.30;37.50;;;;;;4967296;28;20037;-83
2021/04/03 10:52:45;;;;;;;0.47;0.47;;;22.50;39.70;;;;;;4968150;28;20398;-84
2021/04/03 10:55:11;;;;;;;0.37;0.37;;;22.10;41.70;;;;;;4958579;28;20045;-83
2021/04/03 10:57:37;;;;;;;0.30;0.30;;;22.90;39.50;;;;;;4963862;28;20027;-83
2021/04/03 11:00:06;;;;;;;0.10;0.10;;;21.70;40.80;;;;;;4965117;28;20039;-83
2021/04/03 11:02:33;;;;;;;1.05;0.95;;;21.20;42.10;;;;;;4963557;28;20105;-83
2021/04/03 11:05:10;;;;;;;0.70;0.70;;;22.80;39.40;;;;;;4961206;28;20031;-84
2021/04/03 11:07:37;;;;;;;0.30;0.30;;;23.00;39.50;;;;;;4944199;28;20035;-84
2021/04/03 11:10:06;;;;;;;0.38;0.38;;;22.80;38.20;;;;;;4964981;28;20038;-85
2021/04/03 11:12:34;;;;;;;0.35;0.25;;;22.30;39.00;;;;;;4963336;28;20023;-84
2021/04/03 11:15:00;;;;;;;0.35;0.35;;;23.60;37.80;;;;;;4962421;28;20376;-85
2021/04/03 11:17:30;;;;;;;0.10;0.10;;;23.60;50.40;;;;;;4959731;28;20045;-85
2021/04/03 11:19:57;;;;;;;5.72;1.27;;;24.20;36.10;;;;;;4958264;28;20935;-85
2021/04/03 11:22:24;;;;;;;0.10;0.10;;;22.80;37.80;;;;;;4954823;28;20026;-84
2021/04/03 11:24:53;;;;;;;1.27;0.85;;;22.10;39.40;;;;;;4962066;28;20031;-84
2021/04/03 11:27:19;;;;;;;0.10;0.10;;;25.70;33.00;;;;;;4958920;28;20039;-83
2021/04/03 11:29:45;;;;;;;0.37;0.37;;;24.00;34.90;;;;;;4960102;28;20043;-84
2021/04/03 11:32:13;;;;;;;1.90;0.20;;;23.30;37.10;;;;;;4963472;28;20038;-85
2021/04/03 11:34:39;;;;;;;38.50;1.45;;;24.40;34.00;;;;;;4968319;28;20030;-83
2021/04/03 11:37:05;;;;;;;2.23;0.60;;;23.80;36.50;;;;;;4965786;28;20102;-83
2021/04/03 11:39:31;;;;;;;0.17;0.17;;;22.30;39.00;;;;;;4969129;28;20061;-83
2021/04/03 11:41:57;;;;;;;0.52;0.52;;;18.60;39.90;;;;;;4957485;28;20267;-83
2021/04/03 11:44:29;;;;;;;0.10;0.10;;;17.90;41.60;;;;;;4958640;28;20064;-82
2021/04/03 11:46:59;;;;;;;0.45;0.45;;;18.20;41.80;;;;;;4962606;28;20037;-89
2021/04/03 11:49:25;;;;;;;0.08;0.08;;;18.50;41.20;;;;;;4962592;28;20049;-90
2021/04/03 11:51:52;;;;;;;0.10;0.10;;;18.10;42.40;;;;;;4961216;28;20109;-89
2021/04/03 11:54:19;;;;;;;0.40;0.25;;;17.80;43.20;;;;;;4967495;28;20030;-89
2021/04/03 11:56:45;;;;;;;0.30;0.15;;;17.70;43.70;;;;;;4965822;28;20031;-89
2021/04/03 11:59:11;;;;;;;0.15;0.15;;;17.70;42.90;;;;;;4966498;28;20410;-89
2021/04/03 12:01:37;;;;;;;0.00;0.00;;;17.60;44.10;;;;;;4967355;28;20035;-89
2021/04/03 12:04:03;;;;;;;1.90;1.23;;;17.90;43.20;;;;;;4971951;28;20531;-90
2021/04/03 12:06:29;;;;;;;0.33;0.20;;;18.40;42.00;;;;;;4966019;28;20056;-89
2021/04/03 12:08:55;;;;;;;0.40;0.40;;;17.70;44.30;;;;;;4970158;28;20035;-88
2021/04/03 12:11:21;;;;;;;0.20;0.20;;;17.60;43.50;;;;;;4971179;28;20026;-90
2021/04/03 12:13:47;;;;;;;1.87;0.63;;;17.70;44.10;;;;;;4960456;28;20019;-90
2021/04/03 12:16:12;;;;;;;0.23;0.23;;;17.50;43.80;;;;;;4960753;28;20045;-89
2021/04/03 12:18:39;;;;;;;0.77;0.77;;;17.20;44.60;;;;;;4958648;28;20507;-90
2021/04/03 12:21:05;;;;;;;0.10;0.10;;;17.90;43.50;;;;;;4973719;28;20031;-88
2021/04/03 12:23:31;;;;;;;0.37;0.37;;;18.00;43.70;;;;;;4966218;28;20085;-88
2021/04/03 12:25:57;;;;;;;1.17;0.87;;;17.80;43.20;;;;;;4964130;28;20566;-88
2021/04/03 12:28:22;;;;;;;0.00;0.00;;;17.50;44.00;;;;;;4966022;28;20573;-88
2021/04/03 12:30:48;;;;;;;1.10;0.73;;;17.20;44.20;;;;;;4958413;28;20193;-88
2021/04/03 12:33:14;;;;;;;4.83;1.60;;;17.30;45.10;;;;;;4967973;28;20053;-88
2021/04/03 12:35:39;;;;;;;0.17;0.17;;;17.20;45.00;;;;;;4967828;28;20138;-87
2021/04/03 12:38:05;;;;;;;0.57;0.47;;;17.10;45.30;;;;;;4967799;28;20715;-88
2021/04/03 12:40:31;;;;;;;0.17;0.17;;;17.30;45.20;;;;;;4967792;28;20118;-88
2021/04/03 12:42:57;;;;;;;0.50;0.50;;;17.30;44.30;;;;;;4968214;28;20035;-88
2021/04/03 12:45:23;;;;;;;0.50;0.50;;;17.10;44.60;;;;;;4966328;28;20137;-88
2021/04/03 12:47:49;;;;;;;0.13;0.13;;;17.10;44.40;;;;;;4965598;28;20093;-89
2021/04/03 12:50:15;;;;;;;3.57;1.80;;;17.40;44.30;;;;;;4963352;28;20053;-88
2021/04/03 12:52:41;;;;;;;0.82;0.82;;;17.20;44.10;;;;;;4963893;28;20035;-89
2021/04/03 12:55:10;;;;;;;0.10;0.10;;;17.50;43.70;;;;;;4960360;28;20104;-89
2021/04/03 12:57:37;;;;;;;0.10;0.10;;;17.60;44.10;;;;;;4967257;28;20031;-89
2021/04/03 13:00:06;;;;;;;;;;;17.60;43.90;;;;;;4964469;28;20094;-89